sensor_id;sensor_type;location;lat;lon;timestamp;pressure;altitude;pressure_sealevel;temperature
24740;BMP280;45234;48.148;17.128;2022-08-21T00:02:15;99560.13;;;19.61
24740;BMP280;45234;48.148;17.128;2022-08-21T00:04:43;99566.72;;;19.58
24740;BMP280;45234;48.148;17.128;2022-08-21T00:07:22;99561.97;;;19.60
24740;BMP280;45234;48.148;17.128;2022-08-21T00:09:51;99573.03;;;19.62
24740;BMP280;45234;48.148;17.128;2022-08-21T00:12:19;99557.00;;;19.59
24740;BMP280;45234;48.148;17.128;2022-08-21T00:14:46;99559.88;;;19.57
24740;BMP280;45234;48.148;17.128;2022-08-21T00:17:14;99553.28;;;19.60
24740;BMP280;45234;48.148;17.128;2022-08-21T00:19:41;99561.72;;;19.62
24740;BMP280;45234;48.148;17.128;2022-08-21T00:22:08;99568.31;;;19.59
24740;BMP280;45234;48.148;17.128;2022-08-21T00:24:35;99565.13;;;19.62
24740;BMP280;45234;48.148;17.128;2022-08-21T00:27:02;99554.88;;;19.61
24740;BMP280;45234;48.148;17.128;2022-08-21T00:29:30;99543.56;;;19.65
24740;BMP280;45234;48.148;17.128;2022-08-21T00:31:58;99541.97;;;19.70
24740;BMP280;45234;48.148;17.128;2022-08-21T00:34:25;99546.19;;;19.71
24740;BMP280;45234;48.148;17.128;2022-08-21T00:36:54;99534.63;;;19.72
24740;BMP280;45234;48.148;17.128;2022-08-21T00:39:22;99538.53;;;19.79
24740;BMP280;45234;48.148;17.128;2022-08-21T00:41:49;99539.34;;;19.75
24740;BMP280;45234;48.148;17.128;2022-08-21T00:44:17;99542.22;;;19.73
24740;BMP280;45234;48.148;17.128;2022-08-21T00:46:44;99529.88;;;19.69
24740;BMP280;45234;48.148;17.128;2022-08-21T00:49:12;99534.63;;;19.72
24740;BMP280;45234;48.148;17.128;2022-08-21T00:54:07;99537.19;;;19.87
24740;BMP280;45234;48.148;17.128;2022-08-21T00:56:44;99510.16;;;19.76
24740;BMP280;45234;48.148;17.128;2022-08-21T00:59:11;99520.13;;;19.79
24740;BMP280;45234;48.148;17.128;2022-08-21T01:01:39;99522.22;;;19.77
24740;BMP280;45234;48.148;17.128;2022-08-21T01:04:06;99515.41;;;19.76
24740;BMP280;45234;48.148;17.128;2022-08-21T01:06:34;99520.69;;;19.76
24740;BMP280;45234;48.148;17.128;2022-08-21T01:09:02;99515.69;;;19.75
24740;BMP280;45234;48.148;17.128;2022-08-21T01:11:29;99518.31;;;19.75
24740;BMP280;45234;48.148;17.128;2022-08-21T01:13:57;99518.84;;;19.72
24740;BMP280;45234;48.148;17.128;2022-08-21T01:16:24;99521.25;;;19.63
24740;BMP280;45234;48.148;17.128;2022-08-21T01:18:51;99518.84;;;19.61
24740;BMP280;45234;48.148;17.128;2022-08-21T01:21:20;99515.19;;;19.62
24740;BMP280;45234;48.148;17.128;2022-08-21T01:23:54;99504.66;;;19.62
24740;BMP280;45234;48.148;17.128;2022-08-21T01:26:27;99509.91;;;19.62
24740;BMP280;45234;48.148;17.128;2022-08-21T01:29:01;99504.13;;;19.60
24740;BMP280;45234;48.148;17.128;2022-08-21T01:31:30;99510.22;;;19.56
24740;BMP280;45234;48.148;17.128;2022-08-21T01:33:59;99506.03;;;19.55
24740;BMP280;45234;48.148;17.128;2022-08-21T01:36:26;99507.09;;;19.44
24740;BMP280;45234;48.148;17.128;2022-08-21T01:38:54;99506.03;;;19.40
24740;BMP280;45234;48.148;17.128;2022-08-21T01:41:21;99496.88;;;19.37
24740;BMP280;45234;48.148;17.128;2022-08-21T01:43:49;99503.44;;;19.35
24740;BMP280;45234;48.148;17.128;2022-08-21T01:46:16;99492.38;;;19.38
24740;BMP280;45234;48.148;17.128;2022-08-21T01:48:43;99497.38;;;19.34
24740;BMP280;45234;48.148;17.128;2022-08-21T01:51:11;99499.22;;;19.34
24740;BMP280;45234;48.148;17.128;2022-08-21T01:53:39;99484.53;;;19.33
24740;BMP280;45234;48.148;17.128;2022-08-21T01:56:07;99472.94;;;19.28
24740;BMP280;45234;48.148;17.128;2022-08-21T01:58:42;99490.03;;;19.26
24740;BMP280;45234;48.148;17.128;2022-08-21T02:01:09;99469.03;;;19.21
24740;BMP280;45234;48.148;17.128;2022-08-21T02:03:37;99474.84;;;19.23
24740;BMP280;45234;48.148;17.128;2022-08-21T02:06:05;99468.50;;;19.19
24740;BMP280;45234;48.148;17.128;2022-08-21T02:08:33;99475.88;;;19.17
24740;BMP280;45234;48.148;17.128;2022-08-21T02:11:00;99475.88;;;19.12
24740;BMP280;45234;48.148;17.128;2022-08-21T02:13:28;99466.94;;;19.08
24740;BMP280;45234;48.148;17.128;2022-08-21T02:15:55;99465.38;;;19.12
24740;BMP280;45234;48.148;17.128;2022-08-21T02:18:23;99469.59;;;19.13
24740;BMP280;45234;48.148;17.128;2022-08-21T02:20:51;99463.28;;;19.09
24740;BMP280;45234;48.148;17.128;2022-08-21T02:23:22;99455.94;;;19.06
24740;BMP280;45234;48.148;17.128;2022-08-21T02:25:54;99472.22;;;19.03
24740;BMP280;45234;48.148;17.128;2022-08-21T02:28:22;99463.81;;;19.06
24740;BMP280;45234;48.148;17.128;2022-08-21T02:30:54;99452.53;;;19.00
24740;BMP280;45234;48.148;17.128;2022-08-21T02:33:24;99448.06;;;18.96
24740;BMP280;45234;48.148;17.128;2022-08-21T02:35:51;99454.91;;;18.97
24740;BMP280;45234;48.148;17.128;2022-08-21T02:38:25;99451.97;;;18.98
24740;BMP280;45234;48.148;17.128;2022-08-21T02:40:53;99450.16;;;18.94
24740;BMP280;45234;48.148;17.128;2022-08-21T02:43:26;99446.75;;;18.93
24740;BMP280;45234;48.148;17.128;2022-08-21T02:45:55;99459.88;;;18.93
24740;BMP280;45234;48.148;17.128;2022-08-21T02:48:25;99452.28;;;18.92
24740;BMP280;45234;48.148;17.128;2022-08-21T02:50:54;99453.84;;;18.93
24740;BMP280;45234;48.148;17.128;2022-08-21T02:53:23;99458.81;;;18.94
24740;BMP280;45234;48.148;17.128;2022-08-21T02:55:53;99457.22;;;18.98
24740;BMP280;45234;48.148;17.128;2022-08-21T02:58:21;99462.25;;;18.95
24740;BMP280;45234;48.148;17.128;2022-08-21T03:00:48;99466.16;;;18.97
24740;BMP280;45234;48.148;17.128;2022-08-21T03:03:22;99459.63;;;18.95
24740;BMP280;45234;48.148;17.128;2022-08-21T03:05:53;99457.53;;;18.97
24740;BMP280;45234;48.148;17.128;2022-08-21T03:08:22;99454.91;;;18.97
24740;BMP280;45234;48.148;17.128;2022-08-21T03:10:53;99455.97;;;19.01
24740;BMP280;45234;48.148;17.128;2022-08-21T03:13:21;99455.41;;;18.99
24740;BMP280;45234;48.148;17.128;2022-08-21T03:15:49;99449.63;;;18.97
24740;BMP280;45234;48.148;17.128;2022-08-21T03:18:16;99449.38;;;18.93
24740;BMP280;45234;48.148;17.128;2022-08-21T03:20:43;99461.97;;;18.96
24740;BMP280;45234;48.148;17.128;2022-08-21T03:23:12;99449.38;;;18.93
24740;BMP280;45234;48.148;17.128;2022-08-21T03:25:44;99466.97;;;18.93
24740;BMP280;45234;48.148;17.128;2022-08-21T03:28:14;99463.84;;;18.91
24740;BMP280;45234;48.148;17.128;2022-08-21T03:30:41;99465.91;;;18.94
24740;BMP280;45234;48.148;17.128;2022-08-21T03:33:09;99461.44;;;18.94
24740;BMP280;45234;48.148;17.128;2022-08-21T03:35:44;99466.94;;;18.98
24740;BMP280;45234;48.148;17.128;2022-08-21T03:38:12;99473.28;;;18.97
24740;BMP280;45234;48.148;17.128;2022-08-21T03:40:40;99470.66;;;18.97
24740;BMP280;45234;48.148;17.128;2022-08-21T03:43:07;99474.31;;;18.96
24740;BMP280;45234;48.148;17.128;2022-08-21T03:45:37;99462.78;;;18.97
24740;BMP280;45234;48.148;17.128;2022-08-21T03:48:06;99470.66;;;18.97
24740;BMP280;45234;48.148;17.128;2022-08-21T03:50:36;99472.75;;;19.00
24740;BMP280;45234;48.148;17.128;2022-08-21T03:53:08;99482.22;;;19.01
24740;BMP280;45234;48.148;17.128;2022-08-21T03:55:47;99493.75;;;18.95
24740;BMP280;45234;48.148;17.128;2022-08-21T03:58:15;99492.97;;;18.94
24740;BMP280;45234;48.148;17.128;2022-08-21T04:00:53;99501.66;;;19.00
24740;BMP280;45234;48.148;17.128;2022-08-21T04:03:21;99496.41;;;19.00
24740;BMP280;45234;48.148;17.128;2022-08-21T04:05:48;99500.03;;;18.99
24740;BMP280;45234;48.148;17.128;2022-08-21T04:08:16;99499.03;;;19.00
24740;BMP280;45234;48.148;17.128;2022-08-21T04:10:46;99493.50;;;19.01
24740;BMP280;45234;48.148;17.128;2022-08-21T04:13:17;99494.81;;;19.04
24740;BMP280;45234;48.148;17.128;2022-08-21T04:15:44;99491.66;;;19.02
24740;BMP280;45234;48.148;17.128;2022-08-21T04:18:12;99496.41;;;19.10
24740;BMP280;45234;48.148;17.128;2022-08-21T04:20:40;99493.50;;;19.01
24740;BMP280;45234;48.148;17.128;2022-08-21T04:23:16;99506.34;;;19.03
24740;BMP280;45234;48.148;17.128;2022-08-21T04:25:52;99511.09;;;19.06
24740;BMP280;45234;48.148;17.128;2022-08-21T04:28:25;99516.06;;;19.12
24740;BMP280;45234;48.148;17.128;2022-08-21T04:30:55;99513.72;;;19.11
24740;BMP280;45234;48.148;17.128;2022-08-21T04:33:24;99520.03;;;19.10
24740;BMP280;45234;48.148;17.128;2022-08-21T04:35:52;99520.03;;;19.15
24740;BMP280;45234;48.148;17.128;2022-08-21T04:38:21;99512.09;;;19.20
24740;BMP280;45234;48.148;17.128;2022-08-21T04:41:14;99531.84;;;19.22
24740;BMP280;45234;48.148;17.128;2022-08-21T04:43:59;99528.69;;;19.20
24740;BMP280;45234;48.148;17.128;2022-08-21T04:46:26;99526.31;;;19.24
24740;BMP280;45234;48.148;17.128;2022-08-21T04:48:53;99533.94;;;19.20
24740;BMP280;45234;48.148;17.128;2022-08-21T04:51:25;99534.22;;;19.24
24740;BMP280;45234;48.148;17.128;2022-08-21T04:56:28;99531.59;;;19.24
24740;BMP280;45234;48.148;17.128;2022-08-21T04:59:02;99535.75;;;19.25
24740;BMP280;45234;48.148;17.128;2022-08-21T05:01:49;99537.59;;;19.30
24740;BMP280;45234;48.148;17.128;2022-08-21T05:04:25;99541.00;;;19.35
24740;BMP280;45234;48.148;17.128;2022-08-21T05:06:54;99534.19;;;19.34
24740;BMP280;45234;48.148;17.128;2022-08-21T05:09:23;99546.03;;;19.21
24740;BMP280;45234;48.148;17.128;2022-08-21T05:11:51;99533.66;;;19.17
24740;BMP280;45234;48.148;17.128;2022-08-21T05:14:19;99554.69;;;19.22
24740;BMP280;45234;48.148;17.128;2022-08-21T05:16:47;99557.06;;;19.23
24740;BMP280;45234;48.148;17.128;2022-08-21T05:19:16;99563.06;;;19.39
24740;BMP280;45234;48.148;17.128;2022-08-21T05:21:44;99555.19;;;19.34
24740;BMP280;45234;48.148;17.128;2022-08-21T05:24:12;99555.44;;;19.43
24740;BMP280;45234;48.148;17.128;2022-08-21T05:27:37;99554.09;;;19.60
24740;BMP280;45234;48.148;17.128;2022-08-21T05:30:09;99560.38;;;19.70
24740;BMP280;45234;48.148;17.128;2022-08-21T05:32:36;99561.66;;;19.82
24740;BMP280;45234;48.148;17.128;2022-08-21T05:35:04;99555.56;;;19.97
24740;BMP280;45234;48.148;17.128;2022-08-21T05:37:31;99562.34;;;20.08
24740;BMP280;45234;48.148;17.128;2022-08-21T05:39:59;99552.28;;;20.20
24740;BMP280;45234;48.148;17.128;2022-08-21T05:42:46;99555.94;;;20.29
24740;BMP280;45234;48.148;17.128;2022-08-21T05:45:27;99560.03;;;20.45
24740;BMP280;45234;48.148;17.128;2022-08-21T05:48:11;99557.78;;;20.68
24740;BMP280;45234;48.148;17.128;2022-08-21T05:50:38;99561.41;;;20.77
24740;BMP280;45234;48.148;17.128;2022-08-21T05:53:08;99568.31;;;20.73
24740;BMP280;45234;48.148;17.128;2022-08-21T05:55:37;99562.69;;;20.84
24740;BMP280;45234;48.148;17.128;2022-08-21T05:58:17;99563.16;;;20.92
24740;BMP280;45234;48.148;17.128;2022-08-21T06:00:46;99559.81;;;21.10
24740;BMP280;45234;48.148;17.128;2022-08-21T06:03:16;99552.94;;;21.43
24740;BMP280;45234;48.148;17.128;2022-08-21T06:05:47;99556.47;;;21.57
24740;BMP280;45234;48.148;17.128;2022-08-21T06:08:15;99562.81;;;22.36
24740;BMP280;45234;48.148;17.128;2022-08-21T06:10:43;99556.22;;;23.44
24740;BMP280;45234;48.148;17.128;2022-08-21T06:13:11;99564.03;;;22.95
24740;BMP280;45234;48.148;17.128;2022-08-21T06:15:38;99565.47;;;23.01
24740;BMP280;45234;48.148;17.128;2022-08-21T06:18:05;99567.41;;;22.81
24740;BMP280;45234;48.148;17.128;2022-08-21T06:20:32;99565.16;;;22.56
24740;BMP280;45234;48.148;17.128;2022-08-21T06:22:59;99559.63;;;23.04
24740;BMP280;45234;48.148;17.128;2022-08-21T06:25:26;99556.31;;;23.12
24740;BMP280;45234;48.148;17.128;2022-08-21T06:28:00;99554.84;;;23.19
24740;BMP280;45234;48.148;17.128;2022-08-21T06:30:27;99569.63;;;23.07
24740;BMP280;45234;48.148;17.128;2022-08-21T06:32:54;99566.97;;;22.93
24740;BMP280;45234;48.148;17.128;2022-08-21T06:35:21;99574.75;;;22.52
24740;BMP280;45234;48.148;17.128;2022-08-21T06:37:48;99582.47;;;22.30
24740;BMP280;45234;48.148;17.128;2022-08-21T06:40:15;99562.94;;;22.31
24740;BMP280;45234;48.148;17.128;2022-08-21T06:42:53;99580.97;;;22.42
24740;BMP280;45234;48.148;17.128;2022-08-21T06:45:25;99570.91;;;22.26
24740;BMP280;45234;48.148;17.128;2022-08-21T06:47:55;99583.44;;;21.96
24740;BMP280;45234;48.148;17.128;2022-08-21T06:50:24;99587.53;;;22.08
24740;BMP280;45234;48.148;17.128;2022-08-21T06:53:14;99584.94;;;22.59
24740;BMP280;45234;48.148;17.128;2022-08-21T06:55:41;99585.72;;;23.38
24740;BMP280;45234;48.148;17.128;2022-08-21T06:58:09;99577.22;;;24.04
24740;BMP280;45234;48.148;17.128;2022-08-21T07:00:38;99574.06;;;24.16
24740;BMP280;45234;48.148;17.128;2022-08-21T07:03:07;99580.88;;;24.52
24740;BMP280;45234;48.148;17.128;2022-08-21T07:05:48;99585.75;;;24.37
24740;BMP280;45234;48.148;17.128;2022-08-21T07:08:16;99571.19;;;24.26
24740;BMP280;45234;48.148;17.128;2022-08-21T07:10:43;99571.47;;;24.24
24740;BMP280;45234;48.148;17.128;2022-08-21T07:13:11;99574.50;;;24.31
24740;BMP280;45234;48.148;17.128;2022-08-21T07:15:40;99566.53;;;24.09
24740;BMP280;45234;48.148;17.128;2022-08-21T07:18:07;99556.66;;;24.01
24740;BMP280;45234;48.148;17.128;2022-08-21T07:20:35;99570.03;;;23.68
24740;BMP280;45234;48.148;17.128;2022-08-21T07:23:05;99559.84;;;23.21
24740;BMP280;45234;48.148;17.128;2022-08-21T07:25:32;99571.78;;;22.91
24740;BMP280;45234;48.148;17.128;2022-08-21T07:28:00;99563.41;;;23.57
24740;BMP280;45234;48.148;17.128;2022-08-21T07:30:27;99553.75;;;23.75
24740;BMP280;45234;48.148;17.128;2022-08-21T07:32:55;99541.28;;;23.89
24740;BMP280;45234;48.148;17.128;2022-08-21T07:35:24;99541.63;;;24.32
24740;BMP280;45234;48.148;17.128;2022-08-21T07:37:51;99538.16;;;23.87
24740;BMP280;45234;48.148;17.128;2022-08-21T07:40:18;99525.91;;;23.78
24740;BMP280;45234;48.148;17.128;2022-08-21T07:42:47;99542.22;;;23.57
24740;BMP280;45234;48.148;17.128;2022-08-21T07:45:19;99540.88;;;23.46
24740;BMP280;45234;48.148;17.128;2022-08-21T07:47:48;99537.31;;;23.37
24740;BMP280;45234;48.148;17.128;2022-08-21T07:50:20;99533.22;;;23.58
24740;BMP280;45234;48.148;17.128;2022-08-21T07:52:49;99535.19;;;23.25
24740;BMP280;45234;48.148;17.128;2022-08-21T07:55:18;99548.69;;;23.24
24740;BMP280;45234;48.148;17.128;2022-08-21T07:57:46;99535.78;;;23.22
24740;BMP280;45234;48.148;17.128;2022-08-21T08:00:15;99545.34;;;23.32
24740;BMP280;45234;48.148;17.128;2022-08-21T08:02:45;99541.25;;;23.26
24740;BMP280;45234;48.148;17.128;2022-08-21T08:05:17;99537.53;;;23.27
24740;BMP280;45234;48.148;17.128;2022-08-21T08:07:45;99545.84;;;23.07
24740;BMP280;45234;48.148;17.128;2022-08-21T08:10:15;99542.03;;;23.13
24740;BMP280;45234;48.148;17.128;2022-08-21T08:12:43;99549.38;;;23.16
24740;BMP280;45234;48.148;17.128;2022-08-21T08:15:16;99550.03;;;22.94
24740;BMP280;45234;48.148;17.128;2022-08-21T08:17:44;99558.09;;;22.70
24740;BMP280;45234;48.148;17.128;2022-08-21T08:20:13;99556.53;;;22.69
24740;BMP280;45234;48.148;17.128;2022-08-21T08:22:42;99561.06;;;22.50
24740;BMP280;45234;48.148;17.128;2022-08-21T08:25:17;99567.03;;;22.37
24740;BMP280;45234;48.148;17.128;2022-08-21T08:27:45;99574.31;;;22.26
24740;BMP280;45234;48.148;17.128;2022-08-21T08:30:18;99575.34;;;22.30
24740;BMP280;45234;48.148;17.128;2022-08-21T08:32:52;99574.59;;;22.25
24740;BMP280;45234;48.148;17.128;2022-08-21T08:35:22;99572.81;;;22.01
24740;BMP280;45234;48.148;17.128;2022-08-21T08:37:58;99581.88;;;21.95
24740;BMP280;45234;48.148;17.128;2022-08-21T08:43:22;99572.88;;;21.96
24740;BMP280;45234;48.148;17.128;2022-08-21T08:45:50;99580.56;;;21.93
24740;BMP280;45234;48.148;17.128;2022-08-21T08:48:30;99581.16;;;21.66
24740;BMP280;45234;48.148;17.128;2022-08-21T08:50:57;99596.88;;;21.76
24740;BMP280;45234;48.148;17.128;2022-08-21T08:53:32;99583.44;;;21.73
24740;BMP280;45234;48.148;17.128;2022-08-21T08:56:00;99590.28;;;21.74
24740;BMP280;45234;48.148;17.128;2022-08-21T08:58:34;99595.31;;;21.75
24740;BMP280;45234;48.148;17.128;2022-08-21T09:01:03;99591.75;;;21.85
24740;BMP280;45234;48.148;17.128;2022-08-21T09:03:32;99589.81;;;21.95
24740;BMP280;45234;48.148;17.128;2022-08-21T09:27:18;99599.88;;;21.88
24740;BMP280;45234;48.148;17.128;2022-08-21T09:29:47;99589.84;;;21.90
24740;BMP280;45234;48.148;17.128;2022-08-21T09:32:21;99588.94;;;22.00
24740;BMP280;45234;48.148;17.128;2022-08-21T09:35:10;99591.19;;;22.12
24740;BMP280;45234;48.148;17.128;2022-08-21T09:42:59;99569.84;;;22.27
24740;BMP280;45234;48.148;17.128;2022-08-21T09:45:27;99566.84;;;22.33
24740;BMP280;45234;48.148;17.128;2022-08-21T09:48:12;99553.59;;;22.38
24740;BMP280;45234;48.148;17.128;2022-08-21T09:50:40;99559.34;;;22.40
24740;BMP280;45234;48.148;17.128;2022-08-21T09:53:15;99549.63;;;22.36
24740;BMP280;45234;48.148;17.128;2022-08-21T09:56:18;99573.19;;;22.14
24740;BMP280;45234;48.148;17.128;2022-08-21T09:58:56;99558.72;;;22.11
24740;BMP280;45234;48.148;17.128;2022-08-21T10:01:24;99553.06;;;22.18
24740;BMP280;45234;48.148;17.128;2022-08-21T10:04:02;99547.56;;;22.33
24740;BMP280;45234;48.148;17.128;2022-08-21T10:06:30;99555.00;;;22.50
24740;BMP280;45234;48.148;17.128;2022-08-21T10:09:09;99552.25;;;22.55
24740;BMP280;45234;48.148;17.128;2022-08-21T10:17:24;99548.16;;;22.95
24740;BMP280;45234;48.148;17.128;2022-08-21T10:20:00;99534.38;;;22.98
24740;BMP280;45234;48.148;17.128;2022-08-21T10:22:37;99535.97;;;23.12
24740;BMP280;45234;48.148;17.128;2022-08-21T10:27:55;99539.97;;;23.51
24740;BMP280;45234;48.148;17.128;2022-08-21T10:30:29;99535.72;;;23.63
24740;BMP280;45234;48.148;17.128;2022-08-21T10:35:53;99534.91;;;23.54
24740;BMP280;45234;48.148;17.128;2022-08-21T10:38:33;99539.28;;;23.59
24740;BMP280;45234;48.148;17.128;2022-08-21T11:00:10;99537.13;;;23.06
24740;BMP280;45234;48.148;17.128;2022-08-21T11:02:51;99534.56;;;23.15
24740;BMP280;45234;48.148;17.128;2022-08-21T11:05:24;99549.28;;;23.48
24740;BMP280;45234;48.148;17.128;2022-08-21T11:08:12;99533.97;;;23.73
24740;BMP280;45234;48.148;17.128;2022-08-21T11:13:26;99523.78;;;24.24
24740;BMP280;45234;48.148;17.128;2022-08-21T11:18:28;99515.31;;;24.67
24740;BMP280;45234;48.148;17.128;2022-08-21T11:21:14;99512.75;;;24.75
24740;BMP280;45234;48.148;17.128;2022-08-21T11:23:47;99515.56;;;24.87
24740;BMP280;45234;48.148;17.128;2022-08-21T11:26:23;99492.44;;;25.10
24740;BMP280;45234;48.148;17.128;2022-08-21T11:28:54;99492.28;;;25.07
24740;BMP280;45234;48.148;17.128;2022-08-21T11:31:29;99504.63;;;24.80
24740;BMP280;45234;48.148;17.128;2022-08-21T11:39:26;99517.03;;;23.96
24740;BMP280;45234;48.148;17.128;2022-08-21T11:47:24;99505.56;;;23.64
24740;BMP280;45234;48.148;17.128;2022-08-21T11:50:13;99496.91;;;23.73
24740;BMP280;45234;48.148;17.128;2022-08-21T11:53:08;99494.69;;;23.52
24740;BMP280;45234;48.148;17.128;2022-08-21T12:00:33;99487.94;;;23.60
24740;BMP280;45234;48.148;17.128;2022-08-21T12:03:11;99486.56;;;23.62
24740;BMP280;45234;48.148;17.128;2022-08-21T12:05:41;99478.72;;;23.57
24740;BMP280;45234;48.148;17.128;2022-08-21T12:13:31;99479.19;;;23.95
24740;BMP280;45234;48.148;17.128;2022-08-21T12:16:15;99483.53;;;24.13
24740;BMP280;45234;48.148;17.128;2022-08-21T12:18:42;99487.81;;;24.23
24740;BMP280;45234;48.148;17.128;2022-08-21T12:21:17;99486.19;;;24.67
24740;BMP280;45234;48.148;17.128;2022-08-21T12:23:59;99488.56;;;24.46
24740;BMP280;45234;48.148;17.128;2022-08-21T12:29:04;99485.97;;;24.54
24740;BMP280;45234;48.148;17.128;2022-08-21T12:31:32;99490.75;;;24.75
24740;BMP280;45234;48.148;17.128;2022-08-21T12:34:00;99496.50;;;24.77
24740;BMP280;45234;48.148;17.128;2022-08-21T12:36:38;99506.09;;;24.86
24740;BMP280;45234;48.148;17.128;2022-08-21T12:39:11;99509.00;;;24.76
24740;BMP280;45234;48.148;17.128;2022-08-21T12:44:09;99506.97;;;25.13
24740;BMP280;45234;48.148;17.128;2022-08-21T12:46:39;99491.97;;;24.69
24740;BMP280;45234;48.148;17.128;2022-08-21T12:52:12;99494.25;;;25.01
24740;BMP280;45234;48.148;17.128;2022-08-21T12:54:41;99488.66;;;25.11
24740;BMP280;45234;48.148;17.128;2022-08-21T12:57:24;99497.78;;;25.27
24740;BMP280;45234;48.148;17.128;2022-08-21T12:59:55;99495.78;;;25.24
24740;BMP280;45234;48.148;17.128;2022-08-21T13:02:25;99500.78;;;25.34
24740;BMP280;45234;48.148;17.128;2022-08-21T13:04:53;99506.88;;;25.61
24740;BMP280;45234;48.148;17.128;2022-08-21T13:07:26;99507.16;;;25.42
24740;BMP280;45234;48.148;17.128;2022-08-21T13:10:04;99504.38;;;25.47
24740;BMP280;45234;48.148;17.128;2022-08-21T13:12:33;99510.78;;;25.55
24740;BMP280;45234;48.148;17.128;2022-08-21T13:15:03;99503.28;;;25.57
24740;BMP280;45234;48.148;17.128;2022-08-21T13:17:41;99509.31;;;25.14
24740;BMP280;45234;48.148;17.128;2022-08-21T13:20:22;99509.44;;;25.18
24740;BMP280;45234;48.148;17.128;2022-08-21T13:22:52;99494.94;;;25.15
24740;BMP280;45234;48.148;17.128;2022-08-21T13:25:20;99490.88;;;25.09
24740;BMP280;45234;48.148;17.128;2022-08-21T13:31:00;99494.81;;;24.81
24740;BMP280;45234;48.148;17.128;2022-08-21T13:33:29;99489.00;;;24.62
24740;BMP280;45234;48.148;17.128;2022-08-21T13:36:09;99484.28;;;24.59
24740;BMP280;45234;48.148;17.128;2022-08-21T13:38:42;99474.44;;;24.50
24740;BMP280;45234;48.148;17.128;2022-08-21T13:43:48;99476.28;;;23.97
24740;BMP280;45234;48.148;17.128;2022-08-21T13:46:16;99490.44;;;23.79
24740;BMP280;45234;48.148;17.128;2022-08-21T13:48:44;99504.75;;;23.64
24740;BMP280;45234;48.148;17.128;2022-08-21T13:51:11;99505.97;;;23.31
24740;BMP280;45234;48.148;17.128;2022-08-21T13:56:30;99508.13;;;23.15
24740;BMP280;45234;48.148;17.128;2022-08-21T13:58:58;99518.50;;;23.11
24740;BMP280;45234;48.148;17.128;2022-08-21T14:01:39;99525.78;;;23.06
24740;BMP280;45234;48.148;17.128;2022-08-21T14:06:45;99542.97;;;22.57
24740;BMP280;45234;48.148;17.128;2022-08-21T14:09:34;99542.25;;;22.38
24740;BMP280;45234;48.148;17.128;2022-08-21T14:12:14;99549.69;;;22.12
24740;BMP280;45234;48.148;17.128;2022-08-21T14:14:50;99547.81;;;22.18
24740;BMP280;45234;48.148;17.128;2022-08-21T14:17:31;99550.44;;;21.99
24740;BMP280;45234;48.148;17.128;2022-08-21T14:20:03;99548.69;;;21.89
24740;BMP280;45234;48.148;17.128;2022-08-21T14:22:46;99542.50;;;21.80
24740;BMP280;45234;48.148;17.128;2022-08-21T14:25:26;99559.63;;;22.01
24740;BMP280;45234;48.148;17.128;2022-08-21T14:30:38;99560.78;;;21.72
24740;BMP280;45234;48.148;17.128;2022-08-21T14:33:13;99572.75;;;21.64
24740;BMP280;45234;48.148;17.128;2022-08-21T14:35:45;99570.41;;;21.81
24740;BMP280;45234;48.148;17.128;2022-08-21T14:38:22;99573.47;;;21.70
24740;BMP280;45234;48.148;17.128;2022-08-21T14:40:51;99565.25;;;21.76
24740;BMP280;45234;48.148;17.128;2022-08-21T14:43:18;99580.50;;;21.79
24740;BMP280;45234;48.148;17.128;2022-08-21T14:45:46;99585.19;;;21.82
24740;BMP280;45234;48.148;17.128;2022-08-21T14:48:14;99586.22;;;21.86
24740;BMP280;45234;48.148;17.128;2022-08-21T14:50:41;99583.84;;;21.61
24740;BMP280;45234;48.148;17.128;2022-08-21T14:53:08;99580.97;;;21.57
24740;BMP280;45234;48.148;17.128;2022-08-21T14:55:38;99589.47;;;21.26
24740;BMP280;45234;48.148;17.128;2022-08-21T14:58:24;99589.94;;;21.33
24740;BMP280;45234;48.148;17.128;2022-08-21T15:00:52;99597.41;;;21.20
24740;BMP280;45234;48.148;17.128;2022-08-21T15:03:21;99585.63;;;21.13
24740;BMP280;45234;48.148;17.128;2022-08-21T15:05:49;99592.34;;;21.00
24740;BMP280;45234;48.148;17.128;2022-08-21T15:08:17;99583.38;;;20.96
24740;BMP280;45234;48.148;17.128;2022-08-21T15:10:44;99573.78;;;20.81
24740;BMP280;45234;48.148;17.128;2022-08-21T15:13:32;99577.69;;;20.84
24740;BMP280;45234;48.148;17.128;2022-08-21T15:15:59;99583.31;;;21.11
24740;BMP280;45234;48.148;17.128;2022-08-21T15:18:28;99580.13;;;21.09
24740;BMP280;45234;48.148;17.128;2022-08-21T15:20:56;99570.94;;;20.73
24740;BMP280;45234;48.148;17.128;2022-08-21T15:23:23;99565.19;;;20.66
24740;BMP280;45234;48.148;17.128;2022-08-21T15:25:50;99561.88;;;20.84
24740;BMP280;45234;48.148;17.128;2022-08-21T15:28:19;99560.41;;;20.73
24740;BMP280;45234;48.148;17.128;2022-08-21T15:30:47;99564.31;;;20.75
24740;BMP280;45234;48.148;17.128;2022-08-21T15:33:14;99555.28;;;20.87
24740;BMP280;45234;48.148;17.128;2022-08-21T15:35:42;99557.16;;;20.86
24740;BMP280;45234;48.148;17.128;2022-08-21T15:38:09;99567.72;;;20.81
24740;BMP280;45234;48.148;17.128;2022-08-21T15:40:39;99564.63;;;20.74
24740;BMP280;45234;48.148;17.128;2022-08-21T15:43:21;99570.25;;;20.62
24740;BMP280;45234;48.148;17.128;2022-08-21T15:45:59;99569.38;;;20.72
24740;BMP280;45234;48.148;17.128;2022-08-21T15:48:27;99565.66;;;20.73
24740;BMP280;45234;48.148;17.128;2022-08-21T15:50:54;99580.28;;;20.89
24740;BMP280;45234;48.148;17.128;2022-08-21T15:53:21;99565.50;;;20.93
24740;BMP280;45234;48.148;17.128;2022-08-21T15:55:51;99571.88;;;20.87
24740;BMP280;45234;48.148;17.128;2022-08-21T15:58:18;99567.72;;;20.81
24740;BMP280;45234;48.148;17.128;2022-08-21T16:00:47;99574.00;;;20.85
24740;BMP280;45234;48.148;17.128;2022-08-21T16:03:15;99565.25;;;20.61
24740;BMP280;45234;48.148;17.128;2022-08-21T16:05:44;99560.97;;;20.70
24740;BMP280;45234;48.148;17.128;2022-08-21T16:08:11;99562.03;;;20.64
24740;BMP280;45234;48.148;17.128;2022-08-21T16:10:38;99565.91;;;20.76
24740;BMP280;45234;48.148;17.128;2022-08-21T16:13:07;99568.78;;;20.75